sensor_id;sensor_type;location;lat;lon;timestamp;P1;durP1;ratioP1;P2;durP2;ratioP2
13584;SDS011;6863;48.402;9.994;2022-12-07T00:01:15;10.17;;;8.40;;
13584;SDS011;6863;48.402;9.994;2022-12-07T00:03:46;9.83;;;7.73;;
13584;SDS011;6863;48.402;9.994;2022-12-07T00:06:13;9.03;;;7.67;;
13584;SDS011;6863;48.402;9.994;2022-12-07T00:08:40;9.37;;;8.37;;
13584;SDS011;6863;48.402;9.994;2022-12-07T00:11:10;10.43;;;8.17;;
13584;SDS011;6863;48.402;9.994;2022-12-07T00:13:38;9.80;;;8.07;;
13584;SDS011;6863;48.402;9.994;2022-12-07T00:16:08;9.37;;;8.43;;
13584;SDS011;6863;48.402;9.994;2022-12-07T00:18:36;9.23;;;8.23;;
13584;SDS011;6863;48.402;9.994;2022-12-07T00:21:03;9.73;;;8.10;;
13584;SDS011;6863;48.402;9.994;2022-12-07T00:23:32;10.33;;;8.70;;
13584;SDS011;6863;48.402;9.994;2022-12-07T00:26:06;9.13;;;8.03;;
13584;SDS011;6863;48.402;9.994;2022-12-07T00:28:33;9.33;;;8.40;;
13584;SDS011;6863;48.402;9.994;2022-12-07T00:31:00;8.57;;;7.77;;
13584;SDS011;6863;48.402;9.994;2022-12-07T00:33:27;9.13;;;8.17;;
13584;SDS011;6863;48.402;9.994;2022-12-07T00:35:57;11.10;;;9.00;;
13584;SDS011;6863;48.402;9.994;2022-12-07T00:38:23;8.80;;;7.90;;
13584;SDS011;6863;48.402;9.994;2022-12-07T00:40:59;9.70;;;8.60;;
13584;SDS011;6863;48.402;9.994;2022-12-07T00:43:26;9.40;;;8.40;;
13584;SDS011;6863;48.402;9.994;2022-12-07T00:45:52;9.67;;;8.67;;
13584;SDS011;6863;48.402;9.994;2022-12-07T00:48:18;9.70;;;8.00;;
13584;SDS011;6863;48.402;9.994;2022-12-07T00:50:44;9.13;;;8.23;;
13584;SDS011;6863;48.402;9.994;2022-12-07T00:53:10;9.37;;;8.13;;
13584;SDS011;6863;48.402;9.994;2022-12-07T00:55:36;10.70;;;9.53;;
13584;SDS011;6863;48.402;9.994;2022-12-07T00:58:02;9.30;;;8.40;;
13584;SDS011;6863;48.402;9.994;2022-12-07T01:00:27;9.73;;;8.73;;
13584;SDS011;6863;48.402;9.994;2022-12-07T01:02:53;10.23;;;9.00;;
13584;SDS011;6863;48.402;9.994;2022-12-07T01:05:19;9.80;;;8.77;;
13584;SDS011;6863;48.402;9.994;2022-12-07T01:07:44;9.80;;;8.80;;
13584;SDS011;6863;48.402;9.994;2022-12-07T01:10:11;9.87;;;8.60;;
13584;SDS011;6863;48.402;9.994;2022-12-07T01:12:38;9.60;;;8.60;;
13584;SDS011;6863;48.402;9.994;2022-12-07T01:15:04;9.43;;;8.53;;
13584;SDS011;6863;48.402;9.994;2022-12-07T01:17:30;9.63;;;8.63;;
13584;SDS011;6863;48.402;9.994;2022-12-07T01:19:55;10.40;;;8.23;;
13584;SDS011;6863;48.402;9.994;2022-12-07T01:22:21;10.43;;;9.33;;
13584;SDS011;6863;48.402;9.994;2022-12-07T01:24:46;9.23;;;8.30;;
13584;SDS011;6863;48.402;9.994;2022-12-07T01:27:13;9.27;;;8.20;;
13584;SDS011;6863;48.402;9.994;2022-12-07T01:29:38;11.53;;;9.10;;
13584;SDS011;6863;48.402;9.994;2022-12-07T01:32:04;11.17;;;9.33;;
13584;SDS011;6863;48.402;9.994;2022-12-07T01:34:30;11.43;;;9.03;;
13584;SDS011;6863;48.402;9.994;2022-12-07T01:36:56;11.53;;;9.10;;
13584;SDS011;6863;48.402;9.994;2022-12-07T01:39:22;11.57;;;9.40;;
13584;SDS011;6863;48.402;9.994;2022-12-07T01:41:48;12.03;;;9.87;;
13584;SDS011;6863;48.402;9.994;2022-12-07T01:44:24;12.70;;;10.50;;
13584;SDS011;6863;48.402;9.994;2022-12-07T01:46:55;11.80;;;10.30;;
13584;SDS011;6863;48.402;9.994;2022-12-07T01:51:48;11.80;;;10.27;;
13584;SDS011;6863;48.402;9.994;2022-12-07T01:54:16;12.07;;;9.57;;
13584;SDS011;6863;48.402;9.994;2022-12-07T01:56:44;12.10;;;10.33;;
13584;SDS011;6863;48.402;9.994;2022-12-07T01:59:15;13.80;;;10.23;;
13584;SDS011;6863;48.402;9.994;2022-12-07T02:01:42;13.43;;;10.70;;
13584;SDS011;6863;48.402;9.994;2022-12-07T02:04:08;11.87;;;10.20;;
13584;SDS011;6863;48.402;9.994;2022-12-07T02:06:35;13.17;;;10.33;;
13584;SDS011;6863;48.402;9.994;2022-12-07T02:09:01;11.97;;;10.10;;
13584;SDS011;6863;48.402;9.994;2022-12-07T02:11:27;13.87;;;11.57;;
13584;SDS011;6863;48.402;9.994;2022-12-07T02:13:53;14.00;;;10.93;;
13584;SDS011;6863;48.402;9.994;2022-12-07T02:16:22;14.07;;;10.73;;
13584;SDS011;6863;48.402;9.994;2022-12-07T02:28:04;13.23;;;10.57;;
13584;SDS011;6863;48.402;9.994;2022-12-07T02:30:51;14.23;;;11.70;;
13584;SDS011;6863;48.402;9.994;2022-12-07T02:36:10;16.87;;;12.87;;
13584;SDS011;6863;48.402;9.994;2022-12-07T02:38:47;14.20;;;12.07;;
13584;SDS011;6863;48.402;9.994;2022-12-07T02:41:21;17.50;;;13.07;;
13584;SDS011;6863;48.402;9.994;2022-12-07T02:43:53;16.13;;;12.27;;
13584;SDS011;6863;48.402;9.994;2022-12-07T02:46:22;14.40;;;11.77;;
13584;SDS011;6863;48.402;9.994;2022-12-07T02:48:50;16.67;;;12.10;;
13584;SDS011;6863;48.402;9.994;2022-12-07T02:51:18;14.73;;;11.90;;
13584;SDS011;6863;48.402;9.994;2022-12-07T02:53:44;16.20;;;11.90;;
13584;SDS011;6863;48.402;9.994;2022-12-07T02:56:26;16.77;;;12.27;;
13584;SDS011;6863;48.402;9.994;2022-12-07T03:02:05;15.30;;;11.83;;
13584;SDS011;6863;48.402;9.994;2022-12-07T03:12:59;14.33;;;12.07;;
13584;SDS011;6863;48.402;9.994;2022-12-07T03:18:01;15.57;;;12.10;;
13584;SDS011;6863;48.402;9.994;2022-12-07T03:20:29;16.10;;;12.60;;
13584;SDS011;6863;48.402;9.994;2022-12-07T03:22:58;14.43;;;11.53;;
13584;SDS011;6863;48.402;9.994;2022-12-07T03:25:24;15.50;;;12.07;;
13584;SDS011;6863;48.402;9.994;2022-12-07T03:27:56;15.80;;;12.17;;
13584;SDS011;6863;48.402;9.994;2022-12-07T03:33:26;13.40;;;11.07;;
13584;SDS011;6863;48.402;9.994;2022-12-07T03:38:35;15.87;;;11.87;;
13584;SDS011;6863;48.402;9.994;2022-12-07T03:43:39;14.23;;;11.30;;
13584;SDS011;6863;48.402;9.994;2022-12-07T03:46:17;14.90;;;12.00;;
13584;SDS011;6863;48.402;9.994;2022-12-07T03:48:46;16.83;;;12.70;;
13584;SDS011;6863;48.402;9.994;2022-12-07T03:51:24;16.00;;;12.07;;
13584;SDS011;6863;48.402;9.994;2022-12-07T03:54:06;14.63;;;10.53;;
13584;SDS011;6863;48.402;9.994;2022-12-07T03:56:36;13.63;;;10.93;;
13584;SDS011;6863;48.402;9.994;2022-12-07T03:59:02;11.97;;;10.37;;
13584;SDS011;6863;48.402;9.994;2022-12-07T04:01:28;13.80;;;10.10;;
13584;SDS011;6863;48.402;9.994;2022-12-07T04:03:53;12.40;;;9.63;;
13584;SDS011;6863;48.402;9.994;2022-12-07T04:06:19;14.00;;;9.90;;
13584;SDS011;6863;48.402;9.994;2022-12-07T04:08:45;11.83;;;9.67;;
13584;SDS011;6863;48.402;9.994;2022-12-07T04:11:10;12.10;;;9.37;;
13584;SDS011;6863;48.402;9.994;2022-12-07T04:13:36;11.00;;;9.53;;
13584;SDS011;6863;48.402;9.994;2022-12-07T04:16:21;12.07;;;9.43;;
13584;SDS011;6863;48.402;9.994;2022-12-07T04:18:49;10.37;;;9.27;;
13584;SDS011;6863;48.402;9.994;2022-12-07T04:21:15;10.27;;;9.13;;
13584;SDS011;6863;48.402;9.994;2022-12-07T04:23:40;11.67;;;9.53;;
13584;SDS011;6863;48.402;9.994;2022-12-07T04:26:06;12.33;;;9.80;;
13584;SDS011;6863;48.402;9.994;2022-12-07T04:28:32;11.33;;;9.27;;
13584;SDS011;6863;48.402;9.994;2022-12-07T04:30:57;11.67;;;9.57;;
13584;SDS011;6863;48.402;9.994;2022-12-07T04:33:23;10.37;;;8.63;;
13584;SDS011;6863;48.402;9.994;2022-12-07T04:35:48;10.97;;;8.90;;
13584;SDS011;6863;48.402;9.994;2022-12-07T04:38:14;9.93;;;8.93;;
13584;SDS011;6863;48.402;9.994;2022-12-07T04:40:40;10.47;;;9.10;;
13584;SDS011;6863;48.402;9.994;2022-12-07T04:43:05;11.33;;;8.93;;
13584;SDS011;6863;48.402;9.994;2022-12-07T04:45:31;11.63;;;9.10;;
13584;SDS011;6863;48.402;9.994;2022-12-07T04:47:57;9.30;;;8.33;;
13584;SDS011;6863;48.402;9.994;2022-12-07T04:50:22;11.37;;;9.33;;
13584;SDS011;6863;48.402;9.994;2022-12-07T04:52:48;12.07;;;10.23;;
13584;SDS011;6863;48.402;9.994;2022-12-07T04:55:13;10.00;;;8.97;;
13584;SDS011;6863;48.402;9.994;2022-12-07T04:57:39;12.67;;;10.33;;
13584;SDS011;6863;48.402;9.994;2022-12-07T05:00:05;11.43;;;10.20;;
13584;SDS011;6863;48.402;9.994;2022-12-07T05:02:31;12.23;;;10.00;;
13584;SDS011;6863;48.402;9.994;2022-12-07T05:04:56;11.70;;;9.67;;
13584;SDS011;6863;48.402;9.994;2022-12-07T05:07:22;10.50;;;9.40;;
13584;SDS011;6863;48.402;9.994;2022-12-07T05:09:47;11.83;;;9.37;;
13584;SDS011;6863;48.402;9.994;2022-12-07T05:12:13;10.53;;;8.90;;
13584;SDS011;6863;48.402;9.994;2022-12-07T05:14:38;11.67;;;9.40;;
13584;SDS011;6863;48.402;9.994;2022-12-07T05:17:04;11.20;;;8.53;;
13584;SDS011;6863;48.402;9.994;2022-12-07T05:19:29;9.07;;;8.10;;
13584;SDS011;6863;48.402;9.994;2022-12-07T05:21:55;8.40;;;7.47;;
13584;SDS011;6863;48.402;9.994;2022-12-07T05:24:21;8.47;;;7.63;;
13584;SDS011;6863;48.402;9.994;2022-12-07T05:26:46;9.20;;;8.17;;
13584;SDS011;6863;48.402;9.994;2022-12-07T05:29:13;9.43;;;8.10;;
13584;SDS011;6863;48.402;9.994;2022-12-07T05:31:40;10.23;;;8.17;;
13584;SDS011;6863;48.402;9.994;2022-12-07T05:34:05;8.30;;;7.50;;
13584;SDS011;6863;48.402;9.994;2022-12-07T05:36:31;8.80;;;7.60;;
13584;SDS011;6863;48.402;9.994;2022-12-07T05:38:57;9.73;;;7.30;;
13584;SDS011;6863;48.402;9.994;2022-12-07T05:41:23;9.77;;;7.77;;
13584;SDS011;6863;48.402;9.994;2022-12-07T05:44:07;10.97;;;7.80;;
13584;SDS011;6863;48.402;9.994;2022-12-07T05:46:33;11.13;;;8.00;;
13584;SDS011;6863;48.402;9.994;2022-12-07T05:48:59;8.90;;;7.50;;
13584;SDS011;6863;48.402;9.994;2022-12-07T05:51:38;9.47;;;7.83;;
13584;SDS011;6863;48.402;9.994;2022-12-07T05:54:03;7.93;;;7.00;;
13584;SDS011;6863;48.402;9.994;2022-12-07T05:56:29;11.87;;;8.67;;
13584;SDS011;6863;48.402;9.994;2022-12-07T05:58:54;10.47;;;7.63;;
13584;SDS011;6863;48.402;9.994;2022-12-07T06:01:42;10.23;;;7.90;;
13584;SDS011;6863;48.402;9.994;2022-12-07T06:04:07;9.53;;;8.17;;
13584;SDS011;6863;48.402;9.994;2022-12-07T06:06:33;10.90;;;8.30;;
13584;SDS011;6863;48.402;9.994;2022-12-07T06:08:59;9.47;;;7.60;;
13584;SDS011;6863;48.402;9.994;2022-12-07T06:11:24;9.40;;;7.80;;
13584;SDS011;6863;48.402;9.994;2022-12-07T06:14:09;9.67;;;7.70;;
13584;SDS011;6863;48.402;9.994;2022-12-07T06:16:34;11.20;;;8.00;;
13584;SDS011;6863;48.402;9.994;2022-12-07T06:19:00;9.47;;;8.37;;
13584;SDS011;6863;48.402;9.994;2022-12-07T06:21:25;12.60;;;8.83;;
13584;SDS011;6863;48.402;9.994;2022-12-07T06:23:51;9.57;;;8.40;;
13584;SDS011;6863;48.402;9.994;2022-12-07T06:26:17;13.00;;;10.00;;
13584;SDS011;6863;48.402;9.994;2022-12-07T06:28:43;14.77;;;10.17;;
13584;SDS011;6863;48.402;9.994;2022-12-07T06:31:08;11.90;;;9.43;;
13584;SDS011;6863;48.402;9.994;2022-12-07T06:33:34;12.67;;;9.37;;
13584;SDS011;6863;48.402;9.994;2022-12-07T06:36:00;18.77;;;10.77;;
13584;SDS011;6863;48.402;9.994;2022-12-07T06:38:26;11.90;;;9.53;;
13584;SDS011;6863;48.402;9.994;2022-12-07T06:40:51;14.90;;;9.40;;
13584;SDS011;6863;48.402;9.994;2022-12-07T06:43:17;10.10;;;8.60;;
13584;SDS011;6863;48.402;9.994;2022-12-07T06:45:42;12.57;;;9.27;;
13584;SDS011;6863;48.402;9.994;2022-12-07T06:48:08;13.23;;;10.10;;
13584;SDS011;6863;48.402;9.994;2022-12-07T06:50:33;13.70;;;9.63;;
13584;SDS011;6863;48.402;9.994;2022-12-07T06:52:59;10.60;;;8.67;;
13584;SDS011;6863;48.402;9.994;2022-12-07T06:55:25;13.87;;;9.60;;
13584;SDS011;6863;48.402;9.994;2022-12-07T06:57:52;12.67;;;9.57;;
13584;SDS011;6863;48.402;9.994;2022-12-07T07:00:17;12.03;;;8.57;;
13584;SDS011;6863;48.402;9.994;2022-12-07T07:02:43;11.00;;;8.73;;
13584;SDS011;6863;48.402;9.994;2022-12-07T07:05:08;11.80;;;8.63;;
13584;SDS011;6863;48.402;9.994;2022-12-07T07:07:34;11.03;;;8.97;;
13584;SDS011;6863;48.402;9.994;2022-12-07T07:10:00;11.43;;;9.40;;
13584;SDS011;6863;48.402;9.994;2022-12-07T07:12:25;13.57;;;9.77;;
13584;SDS011;6863;48.402;9.994;2022-12-07T07:14:51;11.47;;;8.93;;
13584;SDS011;6863;48.402;9.994;2022-12-07T07:17:17;11.83;;;8.53;;
13584;SDS011;6863;48.402;9.994;2022-12-07T07:19:42;9.37;;;8.33;;
13584;SDS011;6863;48.402;9.994;2022-12-07T07:22:08;9.53;;;7.40;;
13584;SDS011;6863;48.402;9.994;2022-12-07T07:24:33;11.10;;;8.23;;
13584;SDS011;6863;48.402;9.994;2022-12-07T07:26:59;13.43;;;8.10;;
13584;SDS011;6863;48.402;9.994;2022-12-07T07:29:24;9.83;;;8.43;;
13584;SDS011;6863;48.402;9.994;2022-12-07T07:31:50;9.00;;;7.90;;
13584;SDS011;6863;48.402;9.994;2022-12-07T07:34:16;8.40;;;7.53;;
13584;SDS011;6863;48.402;9.994;2022-12-07T07:36:41;10.27;;;7.20;;
13584;SDS011;6863;48.402;9.994;2022-12-07T07:39:07;11.40;;;7.33;;
13584;SDS011;6863;48.402;9.994;2022-12-07T07:41:34;10.17;;;8.10;;
13584;SDS011;6863;48.402;9.994;2022-12-07T07:44:00;9.53;;;7.63;;
13584;SDS011;6863;48.402;9.994;2022-12-07T07:46:26;12.23;;;9.47;;
13584;SDS011;6863;48.402;9.994;2022-12-07T07:48:51;12.17;;;9.87;;
13584;SDS011;6863;48.402;9.994;2022-12-07T07:51:17;13.37;;;8.77;;
13584;SDS011;6863;48.402;9.994;2022-12-07T07:53:42;17.37;;;10.43;;
13584;SDS011;6863;48.402;9.994;2022-12-07T07:56:08;16.50;;;10.30;;
13584;SDS011;6863;48.402;9.994;2022-12-07T07:58:33;9.60;;;8.43;;
13584;SDS011;6863;48.402;9.994;2022-12-07T08:01:06;8.47;;;7.13;;
13584;SDS011;6863;48.402;9.994;2022-12-07T08:03:32;8.67;;;7.20;;
13584;SDS011;6863;48.402;9.994;2022-12-07T08:05:58;11.20;;;8.40;;
13584;SDS011;6863;48.402;9.994;2022-12-07T08:08:23;9.87;;;8.60;;
13584;SDS011;6863;48.402;9.994;2022-12-07T08:10:49;12.07;;;8.17;;
13584;SDS011;6863;48.402;9.994;2022-12-07T08:13:15;8.60;;;7.70;;
13584;SDS011;6863;48.402;9.994;2022-12-07T08:15:42;8.40;;;7.57;;
13584;SDS011;6863;48.402;9.994;2022-12-07T08:18:09;9.17;;;8.17;;
13584;SDS011;6863;48.402;9.994;2022-12-07T08:20:36;9.67;;;8.17;;
13584;SDS011;6863;48.402;9.994;2022-12-07T08:23:02;8.93;;;7.73;;
13584;SDS011;6863;48.402;9.994;2022-12-07T08:25:29;9.83;;;7.90;;
13584;SDS011;6863;48.402;9.994;2022-12-07T08:27:56;10.07;;;8.77;;
13584;SDS011;6863;48.402;9.994;2022-12-07T08:30:21;10.77;;;7.80;;
13584;SDS011;6863;48.402;9.994;2022-12-07T08:32:47;9.57;;;8.57;;
13584;SDS011;6863;48.402;9.994;2022-12-07T08:35:14;9.50;;;7.50;;
13584;SDS011;6863;48.402;9.994;2022-12-07T08:37:40;13.40;;;10.50;;
13584;SDS011;6863;48.402;9.994;2022-12-07T08:40:06;11.33;;;8.97;;
13584;SDS011;6863;48.402;9.994;2022-12-07T08:42:33;8.97;;;7.83;;
13584;SDS011;6863;48.402;9.994;2022-12-07T08:47:32;9.23;;;7.87;;
13584;SDS011;6863;48.402;9.994;2022-12-07T08:50:02;10.87;;;7.70;;
13584;SDS011;6863;48.402;9.994;2022-12-07T08:52:30;9.67;;;7.97;;
13584;SDS011;6863;48.402;9.994;2022-12-07T08:54:56;8.90;;;6.60;;
13584;SDS011;6863;48.402;9.994;2022-12-07T08:57:23;10.20;;;6.63;;
13584;SDS011;6863;48.402;9.994;2022-12-07T08:59:49;9.90;;;6.00;;
13584;SDS011;6863;48.402;9.994;2022-12-07T09:02:15;7.07;;;5.93;;
13584;SDS011;6863;48.402;9.994;2022-12-07T09:04:41;8.87;;;6.40;;
13584;SDS011;6863;48.402;9.994;2022-12-07T09:07:06;6.57;;;5.20;;
13584;SDS011;6863;48.402;9.994;2022-12-07T09:09:32;8.87;;;5.53;;
13584;SDS011;6863;48.402;9.994;2022-12-07T09:11:58;8.30;;;5.53;;
13584;SDS011;6863;48.402;9.994;2022-12-07T09:14:23;7.57;;;5.27;;
13584;SDS011;6863;48.402;9.994;2022-12-07T09:16:49;6.70;;;4.70;;
13584;SDS011;6863;48.402;9.994;2022-12-07T09:19:15;5.07;;;4.57;;
13584;SDS011;6863;48.402;9.994;2022-12-07T09:21:40;4.93;;;4.30;;
13584;SDS011;6863;48.402;9.994;2022-12-07T09:24:06;5.43;;;4.70;;
13584;SDS011;6863;48.402;9.994;2022-12-07T09:26:32;5.73;;;5.23;;
13584;SDS011;6863;48.402;9.994;2022-12-07T09:28:57;5.50;;;4.97;;
13584;SDS011;6863;48.402;9.994;2022-12-07T09:31:23;6.97;;;5.03;;
13584;SDS011;6863;48.402;9.994;2022-12-07T09:33:53;8.00;;;5.07;;
13584;SDS011;6863;48.402;9.994;2022-12-07T09:36:20;5.37;;;4.47;;
13584;SDS011;6863;48.402;9.994;2022-12-07T09:38:45;6.63;;;4.80;;
13584;SDS011;6863;48.402;9.994;2022-12-07T09:41:11;5.33;;;4.17;;
13584;SDS011;6863;48.402;9.994;2022-12-07T09:43:36;5.03;;;4.50;;
13584;SDS011;6863;48.402;9.994;2022-12-07T09:46:05;5.50;;;5.00;;
13584;SDS011;6863;48.402;9.994;2022-12-07T09:48:32;5.57;;;5.07;;
13584;SDS011;6863;48.402;9.994;2022-12-07T09:51:00;6.40;;;5.03;;
13584;SDS011;6863;48.402;9.994;2022-12-07T09:53:27;5.70;;;4.97;;
13584;SDS011;6863;48.402;9.994;2022-12-07T09:55:59;7.80;;;5.63;;
13584;SDS011;6863;48.402;9.994;2022-12-07T09:58:26;6.10;;;5.00;;
13584;SDS011;6863;48.402;9.994;2022-12-07T10:00:55;6.30;;;5.07;;
13584;SDS011;6863;48.402;9.994;2022-12-07T10:03:23;5.20;;;4.70;;
13584;SDS011;6863;48.402;9.994;2022-12-07T10:05:51;4.80;;;4.30;;
13584;SDS011;6863;48.402;9.994;2022-12-07T10:08:18;7.10;;;5.23;;
13584;SDS011;6863;48.402;9.994;2022-12-07T10:10:46;5.17;;;4.67;;
13584;SDS011;6863;48.402;9.994;2022-12-07T10:13:19;4.37;;;3.97;;
13584;SDS011;6863;48.402;9.994;2022-12-07T10:15:51;5.87;;;5.27;;
13584;SDS011;6863;48.402;9.994;2022-12-07T10:21:19;5.30;;;3.90;;
13584;SDS011;6863;48.402;9.994;2022-12-07T10:24:02;3.93;;;3.53;;
13584;SDS011;6863;48.402;9.994;2022-12-07T10:29:27;4.53;;;3.90;;
13584;SDS011;6863;48.402;9.994;2022-12-07T10:34:23;4.43;;;4.03;;
13584;SDS011;6863;48.402;9.994;2022-12-07T10:36:49;4.10;;;3.70;;
13584;SDS011;6863;48.402;9.994;2022-12-07T10:39:24;4.73;;;3.37;;
13584;SDS011;6863;48.402;9.994;2022-12-07T10:41:57;5.00;;;4.40;;
13584;SDS011;6863;48.402;9.994;2022-12-07T10:44:32;4.43;;;3.87;;
13584;SDS011;6863;48.402;9.994;2022-12-07T10:52:46;3.83;;;3.53;;
13584;SDS011;6863;48.402;9.994;2022-12-07T10:55:30;4.17;;;3.50;;
13584;SDS011;6863;48.402;9.994;2022-12-07T11:01:20;3.20;;;2.90;;
13584;SDS011;6863;48.402;9.994;2022-12-07T11:13:04;4.70;;;3.50;;
13584;SDS011;6863;48.402;9.994;2022-12-07T11:15:51;3.10;;;2.80;;
13584;SDS011;6863;48.402;9.994;2022-12-07T11:18:33;3.10;;;2.90;;
13584;SDS011;6863;48.402;9.994;2022-12-07T11:26:38;3.33;;;2.97;;
13584;SDS011;6863;48.402;9.994;2022-12-07T11:29:35;3.10;;;2.83;;
13584;SDS011;6863;48.402;9.994;2022-12-07T11:35:23;4.07;;;3.23;;
13584;SDS011;6863;48.402;9.994;2022-12-07T11:37:59;3.37;;;3.07;;
13584;SDS011;6863;48.402;9.994;2022-12-07T11:40:34;3.13;;;2.87;;
13584;SDS011;6863;48.402;9.994;2022-12-07T11:46:04;3.53;;;2.90;;
13584;SDS011;6863;48.402;9.994;2022-12-07T11:48:39;3.03;;;2.83;;
13584;SDS011;6863;48.402;9.994;2022-12-07T11:51:12;2.77;;;2.57;;
13584;SDS011;6863;48.402;9.994;2022-12-07T11:53:39;2.80;;;2.60;;
13584;SDS011;6863;48.402;9.994;2022-12-07T11:56:21;6.03;;;3.00;;
13584;SDS011;6863;48.402;9.994;2022-12-07T12:01:53;2.70;;;2.50;;
13584;SDS011;6863;48.402;9.994;2022-12-07T12:04:27;3.73;;;2.97;;
13584;SDS011;6863;48.402;9.994;2022-12-07T12:07:14;3.73;;;3.07;;
13584;SDS011;6863;48.402;9.994;2022-12-07T12:09:49;4.60;;;3.10;;
13584;SDS011;6863;48.402;9.994;2022-12-07T12:12:35;4.47;;;2.80;;
13584;SDS011;6863;48.402;9.994;2022-12-07T12:18:01;2.87;;;2.30;;
13584;SDS011;6863;48.402;9.994;2022-12-07T12:21:00;2.87;;;2.60;;
13584;SDS011;6863;48.402;9.994;2022-12-07T12:25:58;3.37;;;3.07;;
13584;SDS011;6863;48.402;9.994;2022-12-07T12:28:31;2.93;;;2.63;;
13584;SDS011;6863;48.402;9.994;2022-12-07T12:33:58;2.90;;;2.60;;
13584;SDS011;6863;48.402;9.994;2022-12-07T12:36:26;2.80;;;2.60;;
13584;SDS011;6863;48.402;9.994;2022-12-07T12:39:15;2.97;;;2.70;;
13584;SDS011;6863;48.402;9.994;2022-12-07T12:46:53;3.33;;;3.03;;
13584;SDS011;6863;48.402;9.994;2022-12-07T12:56:59;2.97;;;2.77;;
13584;SDS011;6863;48.402;9.994;2022-12-07T12:59:30;4.20;;;2.90;;
13584;SDS011;6863;48.402;9.994;2022-12-07T13:02:09;3.23;;;2.93;;
13584;SDS011;6863;48.402;9.994;2022-12-07T13:04:48;3.30;;;3.00;;
13584;SDS011;6863;48.402;9.994;2022-12-07T13:26:14;3.33;;;2.77;;
13584;SDS011;6863;48.402;9.994;2022-12-07T13:28:50;2.60;;;2.40;;
13584;SDS011;6863;48.402;9.994;2022-12-07T13:31:36;4.30;;;2.93;;
13584;SDS011;6863;48.402;9.994;2022-12-07T13:34:27;3.10;;;2.80;;
13584;SDS011;6863;48.402;9.994;2022-12-07T13:36:53;3.57;;;3.27;;
13584;SDS011;6863;48.402;9.994;2022-12-07T13:39:20;3.10;;;2.80;;
13584;SDS011;6863;48.402;9.994;2022-12-07T13:41:57;3.00;;;2.80;;
13584;SDS011;6863;48.402;9.994;2022-12-07T13:44:25;2.37;;;2.10;;
13584;SDS011;6863;48.402;9.994;2022-12-07T13:47:06;3.23;;;2.70;;
13584;SDS011;6863;48.402;9.994;2022-12-07T13:52:17;2.60;;;2.40;;
13584;SDS011;6863;48.402;9.994;2022-12-07T13:55:23;2.97;;;2.30;;
13584;SDS011;6863;48.402;9.994;2022-12-07T13:57:42;4.27;;;3.40;;
13584;SDS011;6863;48.402;9.994;2022-12-07T14:00:15;4.70;;;3.30;;
13584;SDS011;6863;48.402;9.994;2022-12-07T14:02:54;8.27;;;3.53;;
13584;SDS011;6863;48.402;9.994;2022-12-07T14:05:28;3.27;;;2.73;;
13584;SDS011;6863;48.402;9.994;2022-12-07T14:10:31;2.33;;;2.13;;
13584;SDS011;6863;48.402;9.994;2022-12-07T14:12:57;3.50;;;2.47;;
13584;SDS011;6863;48.402;9.994;2022-12-07T14:15:25;3.00;;;2.70;;
13584;SDS011;6863;48.402;9.994;2022-12-07T14:17:55;3.00;;;2.80;;
13584;SDS011;6863;48.402;9.994;2022-12-07T14:21:01;2.83;;;2.53;;
13584;SDS011;6863;48.402;9.994;2022-12-07T14:23:24;2.70;;;2.50;;
13584;SDS011;6863;48.402;9.994;2022-12-07T14:25:52;8.57;;;4.37;;
13584;SDS011;6863;48.402;9.994;2022-12-07T14:28:32;4.53;;;4.03;;
13584;SDS011;6863;48.402;9.994;2022-12-07T14:30:59;3.10;;;2.80;;
13584;SDS011;6863;48.402;9.994;2022-12-07T14:33:26;3.20;;;2.90;;
13584;SDS011;6863;48.402;9.994;2022-12-07T14:35:52;3.17;;;2.87;;
13584;SDS011;6863;48.402;9.994;2022-12-07T14:38:20;3.00;;;2.70;;
13584;SDS011;6863;48.402;9.994;2022-12-07T14:40:46;6.33;;;3.43;;
13584;SDS011;6863;48.402;9.994;2022-12-07T14:43:14;2.97;;;2.67;;
13584;SDS011;6863;48.402;9.994;2022-12-07T14:45:41;3.80;;;2.90;;
13584;SDS011;6863;48.402;9.994;2022-12-07T14:48:07;3.63;;;3.20;;
13584;SDS011;6863;48.402;9.994;2022-12-07T14:50:37;4.90;;;3.07;;
13584;SDS011;6863;48.402;9.994;2022-12-07T14:53:09;4.70;;;3.17;;
13584;SDS011;6863;48.402;9.994;2022-12-07T14:55:40;5.10;;;2.80;;
13584;SDS011;6863;48.402;9.994;2022-12-07T14:58:06;4.80;;;4.30;;
13584;SDS011;6863;48.402;9.994;2022-12-07T15:00:37;5.80;;;3.47;;
13584;SDS011;6863;48.402;9.994;2022-12-07T15:03:02;3.30;;;3.00;;
13584;SDS011;6863;48.402;9.994;2022-12-07T15:05:28;4.57;;;3.80;;
13584;SDS011;6863;48.402;9.994;2022-12-07T15:07:53;3.70;;;3.37;;
13584;SDS011;6863;48.402;9.994;2022-12-07T15:10:20;3.17;;;2.87;;
13584;SDS011;6863;48.402;9.994;2022-12-07T15:12:49;3.30;;;2.80;;
13584;SDS011;6863;48.402;9.994;2022-12-07T15:15:15;3.57;;;2.63;;
13584;SDS011;6863;48.402;9.994;2022-12-07T15:17:42;5.17;;;3.30;;
13584;SDS011;6863;48.402;9.994;2022-12-07T15:20:10;3.00;;;2.70;;
13584;SDS011;6863;48.402;9.994;2022-12-07T15:22:37;4.07;;;3.20;;
13584;SDS011;6863;48.402;9.994;2022-12-07T15:25:03;4.00;;;2.83;;
13584;SDS011;6863;48.402;9.994;2022-12-07T15:27:30;3.67;;;3.03;;
13584;SDS011;6863;48.402;9.994;2022-12-07T15:29:56;4.17;;;2.83;;
13584;SDS011;6863;48.402;9.994;2022-12-07T15:32:22;2.97;;;2.77;;
13584;SDS011;6863;48.402;9.994;2022-12-07T15:34:48;3.60;;;3.10;;
13584;SDS011;6863;48.402;9.994;2022-12-07T15:37:15;3.37;;;2.77;;
13584;SDS011;6863;48.402;9.994;2022-12-07T15:39:40;6.97;;;3.13;;
13584;SDS011;6863;48.402;9.994;2022-12-07T15:42:06;3.40;;;2.40;;
13584;SDS011;6863;48.402;9.994;2022-12-07T15:44:32;2.77;;;2.57;;
13584;SDS011;6863;48.402;9.994;2022-12-07T15:47:16;3.43;;;2.60;;
13584;SDS011;6863;48.402;9.994;2022-12-07T15:49:42;3.83;;;3.10;;
13584;SDS011;6863;48.402;9.994;2022-12-07T15:52:08;3.53;;;2.77;;
13584;SDS011;6863;48.402;9.994;2022-12-07T15:54:34;2.87;;;2.50;;
13584;SDS011;6863;48.402;9.994;2022-12-07T15:57:00;2.90;;;2.70;;
13584;SDS011;6863;48.402;9.994;2022-12-07T15:59:26;3.87;;;3.47;;
13584;SDS011;6863;48.402;9.994;2022-12-07T16:01:53;8.37;;;3.67;;
13584;SDS011;6863;48.402;9.994;2022-12-07T16:04:19;5.13;;;3.73;;
13584;SDS011;6863;48.402;9.994;2022-12-07T16:06:45;4.93;;;3.33;;
13584;SDS011;6863;48.402;9.994;2022-12-07T16:09:11;6.33;;;3.30;;
13584;SDS011;6863;48.402;9.994;2022-12-07T16:11:36;5.53;;;3.40;;
13584;SDS011;6863;48.402;9.994;2022-12-07T16:14:02;7.80;;;4.73;;
13584;SDS011;6863;48.402;9.994;2022-12-07T16:16:28;6.30;;;4.33;;
13584;SDS011;6863;48.402;9.994;2022-12-07T16:18:54;4.57;;;3.87;;
13584;SDS011;6863;48.402;9.994;2022-12-07T16:21:19;4.27;;;3.87;;
13584;SDS011;6863;48.402;9.994;2022-12-07T16:23:45;6.93;;;3.83;;
13584;SDS011;6863;48.402;9.994;2022-12-07T16:26:12;5.60;;;4.40;;
13584;SDS011;6863;48.402;9.994;2022-12-07T16:28:40;4.67;;;3.80;;
13584;SDS011;6863;48.402;9.994;2022-12-07T16:31:10;5.13;;;3.97;;
13584;SDS011;6863;48.402;9.994;2022-12-07T16:33:38;5.03;;;4.43;;
13584;SDS011;6863;48.402;9.994;2022-12-07T16:36:05;5.03;;;3.73;;
13584;SDS011;6863;48.402;9.994;2022-12-07T16:38:32;5.57;;;3.93;;
13584;SDS011;6863;48.402;9.994;2022-12-07T16:40:58;5.70;;;4.63;;
13584;SDS011;6863;48.402;9.994;2022-12-07T16:43:24;5.00;;;4.13;;
13584;SDS011;6863;48.402;9.994;2022-12-07T16:45:49;6.03;;;4.40;;
13584;SDS011;6863;48.402;9.994;2022-12-07T16:48:16;6.13;;;4.43;;
13584;SDS011;6863;48.402;9.994;2022-12-07T16:50:42;4.60;;;4.20;;
13584;SDS011;6863;48.402;9.994;2022-12-07T16:53:11;5.47;;;4.70;;
13584;SDS011;6863;48.402;9.994;2022-12-07T16:55:39;6.87;;;5.07;;
13584;SDS011;6863;48.402;9.994;2022-12-07T16:58:09;5.13;;;4.37;;
13584;SDS011;6863;48.402;9.994;2022-12-07T17:00:36;4.87;;;4.20;;
13584;SDS011;6863;48.402;9.994;2022-12-07T17:03:05;4.87;;;4.20;;
13584;SDS011;6863;48.402;9.994;2022-12-07T17:05:30;5.00;;;4.40;;
13584;SDS011;6863;48.402;9.994;2022-12-07T17:07:56;5.83;;;4.60;;
13584;SDS011;6863;48.402;9.994;2022-12-07T17:10:23;6.67;;;4.90;;